Time;durP1;ratioP1;P1;durP2;ratioP2;P2;SDS_P1;SDS_P2;PMS_P1;PMS_P2;Temp;Humidity;BMP_temperature;BMP_pressure;BME280_temperature;BME280_humidity;BME280_pressure;Samples;Min_cycle;Max_cycle;Signal;HPM_P1;HPM_P2
2022/11/08 00:01:59;;;;;;;4.10;3.20;;;;;;;;;;5087525;28;20218;-30
2022/11/08 00:04:26;;;;;;;4.87;3.33;;;;;;;;;;5089316;28;20264;-31
2022/11/08 00:15:10;;;;;;;4.03;3.53;;;;;;;;;;5081121;28;20200;-30
2022/11/08 00:17:37;;;;;;;3.77;3.13;;;;;;;;;;5080375;28;20201;-31
2022/11/08 00:20:05;;;;;;;3.97;3.07;;;;;;;;;;5081627;28;20225;-30
2022/11/08 00:22:32;;;;;;;3.63;3.20;;;;;;;;;;5081893;28;20209;-32
2022/11/08 00:24:59;;;;;;;4.20;3.27;;;;;;;;;;5093571;28;20216;-30
2022/11/08 00:27:26;;;;;;;4.53;3.80;;;;;;;;;;5093694;28;20210;-31
2022/11/08 00:29:54;;;;;;;6.63;3.17;;;;;;;;;;5090740;28;20211;-31
2022/11/08 00:32:23;;;;;;;7.20;3.30;;;;;;;;;;5082601;28;20221;-31
2022/11/08 00:34:50;;;;;;;3.73;3.33;;;;;;;;;;5090605;28;20607;-28
2022/11/08 00:37:18;;;;;;;4.10;3.37;;;;;;;;;;5089014;28;20200;-30
2022/11/08 00:39:45;;;;;;;4.63;3.20;;;;;;;;;;5073013;28;20229;-32
2022/11/08 00:42:12;;;;;;;4.73;3.13;;;;;;;;;;5073835;28;20201;-27
2022/11/08 00:44:40;;;;;;;3.37;3.03;;;;;;;;;;5078103;28;20228;-31
2022/11/08 00:47:07;;;;;;;4.60;2.93;;;;;;;;;;5085083;28;20203;-31
2022/11/08 00:49:35;;;;;;;4.27;3.40;;;;;;;;;;5081367;28;20211;-33
2022/11/08 00:52:02;;;;;;;6.20;3.47;;;;;;;;;;5080814;28;20224;-32
2022/11/08 00:54:30;;;;;;;4.47;3.60;;;;;;;;;;5093290;28;20205;-31
2022/11/08 00:56:57;;;;;;;4.30;3.23;;;;;;;;;;5092626;28;20205;-31
2022/11/08 00:59:24;;;;;;;4.30;3.30;;;;;;;;;;5086126;28;20213;-33
2022/11/08 01:01:51;;;;;;;3.43;2.93;;;;;;;;;;5093066;28;20212;-30
2022/11/08 01:04:19;;;;;;;3.93;3.30;;;;;;;;;;5089477;28;20330;-30
2022/11/08 01:06:48;;;;;;;4.43;3.20;;;;;;;;;;5078605;28;20201;-33
2022/11/08 01:09:15;;;;;;;3.40;3.10;;;;;;;;;;5092887;28;20325;-31
2022/11/08 01:11:45;;;;;;;5.00;3.33;;;;;;;;;;5093078;28;20239;-31
2022/11/08 01:14:12;;;;;;;3.17;2.87;;;;;;;;;;5082019;28;20215;-34
2022/11/08 01:16:39;;;;;;;3.73;3.40;;;;;;;;;;5080110;28;20198;-32
2022/11/08 01:19:07;;;;;;;4.27;3.23;;;;;;;;;;5080492;28;20207;-32
2022/11/08 01:21:34;;;;;;;4.60;3.00;;;;;;;;;;5087421;28;20231;-33
2022/11/08 01:24:02;;;;;;;4.37;3.20;;;;;;;;;;5089655;28;20200;-34
2022/11/08 01:26:30;;;;;;;3.73;2.83;;;;;;;;;;5091797;28;20296;-30
2022/11/08 01:28:57;;;;;;;4.20;3.33;;;;;;;;;;5079391;28;20201;-33
2022/11/08 01:31:26;;;;;;;6.83;3.20;;;;;;;;;;5088213;28;20213;-31
2022/11/08 01:33:53;;;;;;;3.17;2.73;;;;;;;;;;5069473;28;20209;-31
2022/11/08 01:36:21;;;;;;;4.33;3.50;;;;;;;;;;5078911;28;20252;-32
2022/11/08 01:38:49;;;;;;;4.07;3.17;;;;;;;;;;5089940;28;20193;-30
2022/11/08 01:41:18;;;;;;;3.53;3.23;;;;;;;;;;5089755;28;20315;-34
2022/11/08 01:43:46;;;;;;;4.47;3.10;;;;;;;;;;5080619;28;20295;-33
2022/11/08 01:46:37;;;;;;;5.37;3.17;;;;;;;;;;5072066;28;20208;-32
2022/11/08 01:49:18;;;;;;;4.33;2.93;;;;;;;;;;5073182;28;20227;-32
2022/11/08 01:51:47;;;;;;;2.93;2.70;;;;;;;;;;5081270;28;20252;-30
2022/11/08 01:54:18;;;;;;;5.20;2.97;;;;;;;;;;5081337;28;20201;-36
2022/11/08 01:56:47;;;;;;;3.40;2.87;;;;;;;;;;5075782;28;20206;-30
2022/11/08 01:59:16;;;;;;;4.67;2.83;;;;;;;;;;5076390;28;20209;-34
2022/11/08 02:01:44;;;;;;;3.13;2.83;;;;;;;;;;5076096;28;20248;-33
2022/11/08 02:04:11;;;;;;;3.10;2.70;;;;;;;;;;5067416;28;20208;-35
2022/11/08 02:06:39;;;;;;;4.10;2.60;;;;;;;;;;5080932;28;20207;-31
2022/11/08 02:09:08;;;;;;;4.00;3.03;;;;;;;;;;5084107;28;20207;-34
2022/11/08 02:11:36;;;;;;;2.60;2.40;;;;;;;;;;5089761;28;20228;-33
2022/11/08 02:14:05;;;;;;;3.63;3.07;;;;;;;;;;5077288;28;20303;-35
2022/11/08 02:16:32;;;;;;;3.07;2.77;;;;;;;;;;5079389;28;20215;-32
2022/11/08 02:18:59;;;;;;;2.83;2.57;;;;;;;;;;5076114;28;20205;-29
2022/11/08 02:21:28;;;;;;;3.50;2.70;;;;;;;;;;5080850;28;20221;-31
2022/11/08 02:23:57;;;;;;;3.20;2.90;;;;;;;;;;5080016;28;20205;-32
2022/11/08 02:26:26;;;;;;;3.30;2.80;;;;;;;;;;5090090;28;20291;-31
2022/11/08 02:28:53;;;;;;;3.33;3.00;;;;;;;;;;5087156;28;20216;-31
2022/11/08 02:31:20;;;;;;;3.93;3.10;;;;;;;;;;5079344;28;20227;-31
2022/11/08 02:33:48;;;;;;;3.50;2.70;;;;;;;;;;5075831;28;20232;-30
2022/11/08 02:36:17;;;;;;;3.80;2.83;;;;;;;;;;5087237;28;20492;-30
2022/11/08 02:38:46;;;;;;;4.33;2.77;;;;;;;;;;5075265;28;20198;-29
2022/11/08 02:41:15;;;;;;;3.33;2.90;;;;;;;;;;5094386;28;20234;-30
2022/11/08 02:43:42;;;;;;;4.23;3.07;;;;;;;;;;5091300;28;20192;-33
2022/11/08 02:46:09;;;;;;;3.13;2.53;;;;;;;;;;5083364;28;20209;-32
2022/11/08 02:48:36;;;;;;;2.47;2.10;;;;;;;;;;5081925;28;20215;-32
2022/11/08 02:51:04;;;;;;;5.60;2.70;;;;;;;;;;5080958;28;20228;-31
2022/11/08 02:53:31;;;;;;;3.73;2.50;;;;;;;;;;5084677;28;20224;-33
2022/11/08 02:55:58;;;;;;;3.00;2.70;;;;;;;;;;5078128;28;20189;-36
2022/11/08 02:58:27;;;;;;;4.93;2.87;;;;;;;;;;5092535;28;20208;-31
2022/11/08 03:00:54;;;;;;;5.53;2.90;;;;;;;;;;5079266;28;20225;-33
2022/11/08 03:03:21;;;;;;;2.90;2.70;;;;;;;;;;5072537;28;20200;-33
2022/11/08 03:05:48;;;;;;;3.80;2.70;;;;;;;;;;5081160;28;20319;-29
2022/11/08 03:08:15;;;;;;;2.80;2.50;;;;;;;;;;5089600;28;20197;-31
2022/11/08 03:10:42;;;;;;;4.97;2.43;;;;;;;;;;5083566;28;20213;-32
2022/11/08 03:13:10;;;;;;;3.43;2.60;;;;;;;;;;5089476;28;20225;-33
2022/11/08 03:15:38;;;;;;;4.60;2.83;;;;;;;;;;5075914;28;20205;-30
2022/11/08 03:18:05;;;;;;;5.03;2.70;;;;;;;;;;5091853;28;20246;-33
2022/11/08 03:20:32;;;;;;;6.30;2.57;;;;;;;;;;5074923;28;20228;-33
2022/11/08 03:23:00;;;;;;;3.80;2.40;;;;;;;;;;5085492;28;20193;-32
2022/11/08 03:25:27;;;;;;;3.17;2.50;;;;;;;;;;5083263;28;20224;-30
2022/11/08 03:27:54;;;;;;;2.97;2.67;;;;;;;;;;5092610;28;20211;-33
2022/11/08 03:30:21;;;;;;;2.70;2.27;;;;;;;;;;5084898;28;20227;-29
2022/11/08 03:32:50;;;;;;;3.33;2.60;;;;;;;;;;5073838;28;20225;-33
2022/11/08 03:35:17;;;;;;;3.30;2.70;;;;;;;;;;5077103;28;20201;-34
2022/11/08 03:37:50;;;;;;;2.90;2.20;;;;;;;;;;5089216;28;20232;-32
2022/11/08 03:40:18;;;;;;;3.13;2.30;;;;;;;;;;5082204;28;20217;-32
2022/11/08 03:42:45;;;;;;;3.30;2.70;;;;;;;;;;5070471;28;20197;-34
2022/11/08 03:45:12;;;;;;;3.43;2.30;;;;;;;;;;5081714;28;20204;-31
2022/11/08 03:47:39;;;;;;;2.93;2.63;;;;;;;;;;5080333;28;20193;-33
2022/11/08 03:50:08;;;;;;;2.87;2.20;;;;;;;;;;5080150;28;20221;-29
2022/11/08 03:52:40;;;;;;;5.33;2.27;;;;;;;;;;5090045;28;20221;-28
2022/11/08 03:55:08;;;;;;;2.57;2.30;;;;;;;;;;5094563;28;20200;-31
2022/11/08 03:57:35;;;;;;;2.80;2.20;;;;;;;;;;5094549;28;20213;-31
2022/11/08 04:00:02;;;;;;;2.50;2.30;;;;;;;;;;5158240;22;20229;-34
2022/11/08 04:02:29;;;;;;;5.53;2.77;;;;;;;;;;5085509;28;20227;-31
2022/11/08 04:04:57;;;;;;;3.17;2.40;;;;;;;;;;5079182;28;20298;-33
2022/11/08 04:07:25;;;;;;;3.73;2.73;;;;;;;;;;5069929;28;20197;-31
2022/11/08 04:09:52;;;;;;;4.60;2.93;;;;;;;;;;5073362;28;20216;-27
2022/11/08 04:15:17;;;;;;;3.70;3.03;;;;;;;;;;5076362;28;20193;-31
2022/11/08 04:23:18;;;;;;;3.57;2.87;;;;;;;;;;5075452;28;20196;-32
2022/11/08 04:25:45;;;;;;;4.23;2.83;;;;;;;;;;5073247;28;20208;-27
2022/11/08 04:28:12;;;;;;;3.13;2.60;;;;;;;;;;5073092;28;20212;-32
2022/11/08 04:30:39;;;;;;;2.90;2.60;;;;;;;;;;5074624;28;20222;-31
2022/11/08 04:33:07;;;;;;;3.43;3.00;;;;;;;;;;5068806;28;20223;-30
2022/11/08 04:35:34;;;;;;;4.50;2.70;;;;;;;;;;5068024;28;20295;-28
2022/11/08 04:38:01;;;;;;;2.40;2.20;;;;;;;;;;5079552;28;20307;-34
2022/11/08 04:40:31;;;;;;;2.90;2.60;;;;;;;;;;5093606;28;20316;-30
2022/11/08 04:42:58;;;;;;;3.07;2.43;;;;;;;;;;5093743;28;20473;-31
2022/11/08 04:45:25;;;;;;;3.03;2.37;;;;;;;;;;5069198;28;20209;-29
2022/11/08 04:47:52;;;;;;;2.97;2.67;;;;;;;;;;5082863;28;20208;-34
2022/11/08 04:50:19;;;;;;;3.37;2.40;;;;;;;;;;5065569;28;20231;-31
2022/11/08 04:52:52;;;;;;;4.10;2.73;;;;;;;;;;5087370;28;20217;-31
2022/11/08 04:55:19;;;;;;;5.80;2.90;;;;;;;;;;5089707;28;20193;-31
2022/11/08 04:57:48;;;;;;;3.20;2.50;;;;;;;;;;5079883;28;20201;-29
2022/11/08 05:00:16;;;;;;;2.47;2.30;;;;;;;;;;5060486;28;20229;-32
2022/11/08 05:02:43;;;;;;;3.20;2.40;;;;;;;;;;5073156;28;20203;-33
2022/11/08 05:05:10;;;;;;;3.57;2.80;;;;;;;;;;5068786;28;20290;-31
2022/11/08 05:07:37;;;;;;;4.67;2.80;;;;;;;;;;5082053;28;20250;-31
2022/11/08 05:10:05;;;;;;;4.23;3.07;;;;;;;;;;5075140;28;20231;-33
2022/11/08 05:12:32;;;;;;;3.67;2.70;;;;;;;;;;5058520;28;20234;-28
2022/11/08 05:15:00;;;;;;;3.20;2.90;;;;;;;;;;5061985;28;20205;-30
2022/11/08 05:17:28;;;;;;;2.90;2.70;;;;;;;;;;5071915;28;20215;-32
2022/11/08 05:25:24;;;;;;;3.23;2.77;;;;;;;;;;5074828;28;20304;-33
2022/11/08 05:27:51;;;;;;;3.63;2.50;;;;;;;;;;5066557;28;20244;-31
2022/11/08 05:30:20;;;;;;;3.43;2.50;;;;;;;;;;5070349;28;20221;-30
2022/11/08 05:32:47;;;;;;;3.10;2.40;;;;;;;;;;5067000;28;20220;-33
2022/11/08 05:35:14;;;;;;;2.83;2.53;;;;;;;;;;5066609;28;20207;-28
2022/11/08 05:37:42;;;;;;;4.40;3.10;;;;;;;;;;5069188;28;20292;-30
2022/11/08 05:40:10;;;;;;;3.87;3.07;;;;;;;;;;5072390;28;20234;-34
2022/11/08 05:42:44;;;;;;;4.77;3.30;;;;;;;;;;5067756;28;20235;-30
2022/11/08 05:45:11;;;;;;;3.00;2.40;;;;;;;;;;5084578;28;20201;-33
2022/11/08 05:47:44;;;;;;;2.70;2.50;;;;;;;;;;5074290;28;20312;-31
2022/11/08 05:50:11;;;;;;;2.40;2.20;;;;;;;;;;5065099;28;20221;-30
2022/11/08 05:52:38;;;;;;;2.47;2.27;;;;;;;;;;5081458;28;20230;-32
2022/11/08 05:55:06;;;;;;;2.77;2.57;;;;;;;;;;5077418;28;20532;-32
2022/11/08 05:57:33;;;;;;;3.97;2.80;;;;;;;;;;5055239;28;20194;-30
2022/11/08 06:00:00;;;;;;;4.80;2.63;;;;;;;;;;5061018;28;20315;-32
2022/11/08 06:02:28;;;;;;;5.13;2.80;;;;;;;;;;5075595;28;20201;-30
2022/11/08 06:04:59;;;;;;;3.77;2.60;;;;;;;;;;5064181;28;20216;-29
2022/11/08 06:07:26;;;;;;;2.50;2.30;;;;;;;;;;5064076;28;20292;-33
2022/11/08 06:09:53;;;;;;;3.20;2.97;;;;;;;;;;5068735;28;20197;-33
2022/11/08 06:12:20;;;;;;;3.07;2.80;;;;;;;;;;5070936;28;20207;-32
2022/11/08 06:14:48;;;;;;;3.33;2.50;;;;;;;;;;5079056;28;20204;-33
2022/11/08 06:17:15;;;;;;;3.10;2.80;;;;;;;;;;5072319;28;20197;-32
2022/11/08 06:19:43;;;;;;;3.17;2.87;;;;;;;;;;5084589;28;20216;-32
2022/11/08 06:22:11;;;;;;;3.33;3.03;;;;;;;;;;5076185;28;20257;-32
2022/11/08 06:24:39;;;;;;;5.97;3.70;;;;;;;;;;5084764;28;20578;-29
2022/11/08 06:27:06;;;;;;;3.90;2.77;;;;;;;;;;5076277;28;20205;-32
2022/11/08 06:29:33;;;;;;;3.70;3.20;;;;;;;;;;5074813;28;20292;-30
2022/11/08 06:32:00;;;;;;;2.80;2.60;;;;;;;;;;5063428;28;20235;-33
2022/11/08 06:34:27;;;;;;;7.50;6.80;;;;;;;;;;5059833;28;20217;-29
2022/11/08 06:36:57;;;;;;;3.57;3.27;;;;;;;;;;5075576;28;20204;-28
2022/11/08 06:39:26;;;;;;;3.60;3.30;;;;;;;;;;5081826;28;20201;-32
2022/11/08 06:41:53;;;;;;;3.93;3.37;;;;;;;;;;5096401;28;20259;-32
2022/11/08 06:44:20;;;;;;;4.33;3.17;;;;;;;;;;5083917;28;20202;-29
2022/11/08 06:46:47;;;;;;;4.50;2.93;;;;;;;;;;5075963;28;20211;-32
2022/11/08 06:49:14;;;;;;;3.13;2.87;;;;;;;;;;5086965;28;20283;-30
2022/11/08 06:51:41;;;;;;;3.40;3.10;;;;;;;;;;5072041;28;20292;-30
2022/11/08 06:54:09;;;;;;;3.47;3.03;;;;;;;;;;5080384;28;20229;-33
2022/11/08 06:56:37;;;;;;;6.30;3.20;;;;;;;;;;5075648;28;20201;-33
2022/11/08 06:59:04;;;;;;;3.33;2.60;;;;;;;;;;5069261;28;20215;-35
2022/11/08 07:01:31;;;;;;;9.03;7.67;;;;;;;;;;5073725;28;20232;-32
2022/11/08 07:03:58;;;;;;;4.93;4.00;;;;;;;;;;5074292;28;20197;-32
2022/11/08 07:06:25;;;;;;;5.67;4.20;;;;;;;;;;5077675;28;20297;-30
2022/11/08 07:08:53;;;;;;;4.83;4.33;;;;;;;;;;5083582;28;20201;-31
2022/11/08 07:11:20;;;;;;;5.00;3.40;;;;;;;;;;5075521;28;20225;-33
2022/11/08 07:13:48;;;;;;;3.37;3.07;;;;;;;;;;5069483;28;20228;-29
2022/11/08 07:16:15;;;;;;;5.23;4.77;;;;;;;;;;5082280;28;20272;-30
2022/11/08 07:18:43;;;;;;;5.53;4.43;;;;;;;;;;5074737;28;20201;-32
2022/11/08 07:21:10;;;;;;;5.87;2.90;;;;;;;;;;5073414;28;20263;-31
2022/11/08 07:23:37;;;;;;;3.73;3.37;;;;;;;;;;5094189;28;20196;-30
2022/11/08 07:26:07;;;;;;;3.60;3.30;;;;;;;;;;5095538;28;20218;-31
2022/11/08 07:28:35;;;;;;;3.67;2.90;;;;;;;;;;5084486;28;20247;-28
2022/11/08 07:31:04;;;;;;;3.30;2.77;;;;;;;;;;5075987;28;20223;-29
2022/11/08 07:33:32;;;;;;;3.10;2.83;;;;;;;;;;5086180;28;20243;-32
2022/11/08 07:35:59;;;;;;;3.83;2.90;;;;;;;;;;5072851;28;20208;-31
2022/11/08 07:38:26;;;;;;;3.23;2.93;;;;;;;;;;5083957;28;20232;-32
2022/11/08 07:40:56;;;;;;;4.03;3.40;;;;;;;;;;5095092;28;20260;-32
2022/11/08 07:43:23;;;;;;;4.33;3.57;;;;;;;;;;5095323;28;20204;-33
2022/11/08 07:45:55;;;;;;;4.30;3.33;;;;;;;;;;5069086;28;20296;-30
2022/11/08 07:48:23;;;;;;;7.17;3.53;;;;;;;;;;5074133;28;20207;-29
2022/11/08 07:50:50;;;;;;;4.60;3.53;;;;;;;;;;5069063;28;20231;-30
2022/11/08 07:53:18;;;;;;;5.20;3.57;;;;;;;;;;5082457;28;20221;-28
2022/11/08 07:55:45;;;;;;;4.03;3.57;;;;;;;;;;5074620;28;20240;-29
2022/11/08 07:58:13;;;;;;;4.23;3.33;;;;;;;;;;5065887;28;20236;-29
2022/11/08 08:00:40;;;;;;;5.93;3.20;;;;;;;;;;5071051;28;20246;-30
2022/11/08 08:03:09;;;;;;;2.90;2.70;;;;;;;;;;5089786;28;20208;-31
2022/11/08 08:05:38;;;;;;;4.70;3.70;;;;;;;;;;5077642;28;20209;-29
2022/11/08 08:08:05;;;;;;;5.03;3.87;;;;;;;;;;5081997;28;20224;-32
2022/11/08 08:10:33;;;;;;;4.57;3.57;;;;;;;;;;5093819;28;20280;-29
2022/11/08 08:13:00;;;;;;;4.23;3.33;;;;;;;;;;5087324;28;20248;-28
2022/11/08 08:15:27;;;;;;;5.67;3.40;;;;;;;;;;5068898;28;20204;-28
2022/11/08 08:17:54;;;;;;;3.90;3.27;;;;;;;;;;5071984;28;20235;-28
2022/11/08 08:20:22;;;;;;;3.23;2.90;;;;;;;;;;5069161;28;20217;-31
2022/11/08 08:22:51;;;;;;;7.90;2.80;;;;;;;;;;5092079;28;20292;-28
2022/11/08 08:25:18;;;;;;;3.83;3.30;;;;;;;;;;5093214;28;20451;-32
2022/11/08 08:27:47;;;;;;;6.03;2.77;;;;;;;;;;5093973;28;20215;-27
2022/11/08 08:30:14;;;;;;;4.40;3.03;;;;;;;;;;5075249;28;20230;-33
2022/11/08 08:32:41;;;;;;;3.03;2.73;;;;;;;;;;5088097;28;20211;-32
2022/11/08 08:35:08;;;;;;;5.10;2.63;;;;;;;;;;5064812;28;20222;-28
2022/11/08 08:37:36;;;;;;;3.90;2.70;;;;;;;;;;5087073;28;20208;-29
2022/11/08 08:40:04;;;;;;;3.87;3.23;;;;;;;;;;5073274;28;20229;-34
2022/11/08 08:42:33;;;;;;;3.63;2.80;;;;;;;;;;5073824;28;20233;-32
2022/11/08 08:45:00;;;;;;;2.83;2.50;;;;;;;;;;5064526;28;20232;-30
2022/11/08 08:47:28;;;;;;;3.93;2.80;;;;;;;;;;5075909;28;20293;-28
2022/11/08 08:49:55;;;;;;;5.23;3.60;;;;;;;;;;5061406;28;20302;-32
2022/11/08 08:52:22;;;;;;;9.23;4.30;;;;;;;;;;5070277;28;20236;-32
2022/11/08 08:54:49;;;;;;;7.57;4.10;;;;;;;;;;5072947;28;20213;-32
2022/11/08 08:57:17;;;;;;;4.10;3.70;;;;;;;;;;5068275;28;20212;-29
2022/11/08 08:59:45;;;;;;;5.80;3.83;;;;;;;;;;5063783;28;20300;-29
2022/11/08 09:02:12;;;;;;;6.43;4.43;;;;;;;;;;5081232;28;20198;-33
2022/11/08 09:04:40;;;;;;;7.20;4.53;;;;;;;;;;5069352;28;20205;-32
2022/11/08 09:07:07;;;;;;;6.37;4.63;;;;;;;;;;5070575;28;20202;-29
2022/11/08 09:09:35;;;;;;;4.87;3.70;;;;;;;;;;5073643;28;20237;-31
2022/11/08 09:12:02;;;;;;;4.80;4.00;;;;;;;;;;5079004;28;20224;-33
2022/11/08 09:14:30;;;;;;;4.20;3.37;;;;;;;;;;5078335;28;20238;-32
2022/11/08 09:16:58;;;;;;;4.20;3.33;;;;;;;;;;5058291;28;20289;-34
2022/11/08 09:19:25;;;;;;;4.53;3.50;;;;;;;;;;5074751;28;20216;-32
2022/11/08 09:21:52;;;;;;;5.53;3.53;;;;;;;;;;5073469;28;20228;-31
2022/11/08 09:24:19;;;;;;;4.07;3.63;;;;;;;;;;5093178;28;20196;-32
2022/11/08 09:26:46;;;;;;;4.27;3.83;;;;;;;;;;5092970;28;20295;-33
2022/11/08 09:29:13;;;;;;;6.00;3.60;;;;;;;;;;5076616;28;20259;-30
2022/11/08 09:31:42;;;;;;;4.80;3.30;;;;;;;;;;5083429;28;20293;-33
2022/11/08 09:34:09;;;;;;;6.17;3.90;;;;;;;;;;5070131;28;20222;-33
2022/11/08 09:36:36;;;;;;;6.60;3.87;;;;;;;;;;5075668;28;20208;-30
2022/11/08 09:39:03;;;;;;;4.83;3.90;;;;;;;;;;5079906;28;20271;-32
2022/11/08 09:41:57;;;;;;;5.50;3.53;;;;;;;;;;5072697;28;20225;-30
2022/11/08 09:44:30;;;;;;;4.47;3.30;;;;;;;;;;5066975;28;20262;-32
2022/11/08 09:47:03;;;;;;;6.00;3.53;;;;;;;;;;5064780;28;20197;-31
2022/11/08 09:49:32;;;;;;;3.10;2.90;;;;;;;;;;5076519;28;20214;-33
2022/11/08 09:52:01;;;;;;;6.47;3.13;;;;;;;;;;5076598;28;20288;-31
2022/11/08 09:54:33;;;;;;;3.30;3.00;;;;;;;;;;5081571;28;20308;-33
2022/11/08 09:57:04;;;;;;;3.00;2.70;;;;;;;;;;5081877;28;20210;-31
2022/11/08 09:59:34;;;;;;;4.53;3.07;;;;;;;;;;5150409;22;20356;-31
2022/11/08 10:02:03;;;;;;;7.13;3.37;;;;;;;;;;5113029;28;20226;-32
2022/11/08 10:04:32;;;;;;;4.23;2.90;;;;;;;;;;5111664;28;20205;-30
2022/11/08 10:07:03;;;;;;;4.53;2.97;;;;;;;;;;5115486;28;20196;-30
2022/11/08 10:09:44;;;;;;;4.67;2.93;;;;;;;;;;5119751;28;20238;-31
2022/11/08 10:12:16;;;;;;;3.63;3.00;;;;;;;;;;5105783;28;20318;-33
2022/11/08 10:14:49;;;;;;;5.70;3.30;;;;;;;;;;5090829;28;20220;-33
2022/11/08 10:17:27;;;;;;;4.23;2.73;;;;;;;;;;5112258;28;20278;-33
2022/11/08 10:20:03;;;;;;;3.27;2.60;;;;;;;;;;5106178;28;20207;-32
2022/11/08 10:22:35;;;;;;;2.87;2.60;;;;;;;;;;5104833;28;20287;-34
2022/11/08 10:25:03;;;;;;;3.17;2.67;;;;;;;;;;5118106;28;20284;-32
2022/11/08 10:27:38;;;;;;;4.03;2.60;;;;;;;;;;5095954;28;20200;-28
2022/11/08 10:30:07;;;;;;;3.60;2.80;;;;;;;;;;5098637;28;20216;-28
2022/11/08 10:32:36;;;;;;;4.23;2.77;;;;;;;;;;5107596;28;20259;-33
2022/11/08 10:35:06;;;;;;;3.37;3.00;;;;;;;;;;5093220;28;20216;-32
2022/11/08 10:37:34;;;;;;;3.70;2.93;;;;;;;;;;5101729;28;20197;-32
2022/11/08 10:40:06;;;;;;;3.30;2.83;;;;;;;;;;5109309;28;20227;-32
2022/11/08 10:42:38;;;;;;;2.50;2.17;;;;;;;;;;5097947;28;20291;-33
2022/11/08 10:45:05;;;;;;;5.00;2.93;;;;;;;;;;5090249;28;20210;-33
2022/11/08 10:47:34;;;;;;;3.03;2.23;;;;;;;;;;5099909;28;20203;-34
2022/11/08 10:50:11;;;;;;;3.30;2.40;;;;;;;;;;5098882;28;20314;-29
2022/11/08 10:52:41;;;;;;;4.17;2.60;;;;;;;;;;5101009;27;20204;-29
2022/11/08 10:55:09;;;;;;;2.40;2.23;;;;;;;;;;5097199;28;20227;-31
2022/11/08 10:57:37;;;;;;;2.80;2.10;;;;;;;;;;5101718;28;20203;-29
2022/11/08 11:00:18;;;;;;;3.13;2.10;;;;;;;;;;5092539;27;20243;-31
2022/11/08 11:02:45;;;;;;;11.80;5.03;;;;;;;;;;5071703;28;20224;-32
2022/11/08 11:05:24;;;;;;;5.50;3.47;;;;;;;;;;5078753;28;20200;-32
2022/11/08 11:08:01;;;;;;;4.27;2.97;;;;;;;;;;5083030;28;20287;-33
2022/11/08 11:10:29;;;;;;;3.13;2.50;;;;;;;;;;5082788;28;20304;-33
2022/11/08 11:13:01;;;;;;;2.33;2.00;;;;;;;;;;5079351;28;20202;-30
2022/11/08 11:15:31;;;;;;;2.27;2.07;;;;;;;;;;5079907;28;20214;-29
2022/11/08 11:17:58;;;;;;;2.60;2.13;;;;;;;;;;5082424;28;20205;-30
2022/11/08 11:20:27;;;;;;;2.33;1.67;;;;;;;;;;5083338;28;20220;-33
2022/11/08 11:22:54;;;;;;;2.43;2.07;;;;;;;;;;5086808;28;20200;-32
2022/11/08 11:25:23;;;;;;;3.03;1.97;;;;;;;;;;5079025;28;20301;-32
2022/11/08 11:27:53;;;;;;;3.23;2.43;;;;;;;;;;5081854;28;20281;-28
2022/11/08 11:30:23;;;;;;;2.87;2.43;;;;;;;;;;5064167;28;20218;-30
2022/11/08 11:33:11;;;;;;;3.07;2.20;;;;;;;;;;5078969;28;20228;-33
2022/11/08 11:35:44;;;;;;;2.07;1.80;;;;;;;;;;5060686;28;20235;-27
2022/11/08 11:38:25;;;;;;;1.93;1.80;;;;;;;;;;5076080;28;20200;-34
2022/11/08 11:40:53;;;;;;;2.07;1.83;;;;;;;;;;5083858;28;20227;-29
2022/11/08 11:43:25;;;;;;;3.07;1.70;;;;;;;;;;5081635;28;20193;-33
2022/11/08 11:45:55;;;;;;;2.97;2.20;;;;;;;;;;5101421;28;20189;-30
2022/11/08 11:48:25;;;;;;;3.03;2.23;;;;;;;;;;5081964;28;20209;-29
2022/11/08 11:50:53;;;;;;;3.93;2.27;;;;;;;;;;5081827;28;20251;-32
2022/11/08 11:53:23;;;;;;;2.47;1.87;;;;;;;;;;5088514;28;20207;-33
2022/11/08 11:56:24;;;;;;;4.00;2.23;;;;;;;;;;5071200;28;20217;-34
2022/11/08 11:58:59;;;;;;;3.23;1.87;;;;;;;;;;4989106;28;20195;-32
2022/11/08 12:01:33;;;;;;;3.40;1.90;;;;;;;;;;5019987;28;20230;-28
2022/11/08 12:04:06;;;;;;;3.57;1.87;;;;;;;;;;5067154;28;20234;-30
2022/11/08 12:06:43;;;;;;;2.30;1.87;;;;;;;;;;5078598;28;20200;-34
2022/11/08 12:09:16;;;;;;;3.10;1.93;;;;;;;;;;5089537;28;20200;-33
2022/11/08 12:11:48;;;;;;;1.93;1.83;;;;;;;;;;5088746;28;20213;-31
2022/11/08 12:14:29;;;;;;;2.23;2.03;;;;;;;;;;5077697;28;20205;-32
2022/11/08 12:17:23;;;;;;;2.33;2.13;;;;;;;;;;5082470;28;20204;-28
2022/11/08 12:19:56;;;;;;;2.40;2.17;;;;;;;;;;5081347;28;20283;-33
2022/11/08 12:22:32;;;;;;;2.90;2.07;;;;;;;;;;5085755;28;20402;-33
2022/11/08 12:25:02;;;;;;;2.83;2.17;;;;;;;;;;5076750;28;20227;-33
2022/11/08 12:27:33;;;;;;;4.13;1.80;;;;;;;;;;5082953;28;20275;-32
2022/11/08 12:30:03;;;;;;;2.93;2.07;;;;;;;;;;5083316;28;20220;-33
2022/11/08 12:33:00;;;;;;;2.57;1.90;;;;;;;;;;5089605;28;20213;-33
2022/11/08 12:35:31;;;;;;;3.40;1.80;;;;;;;;;;5030353;28;20225;-35
2022/11/08 12:38:05;;;;;;;3.40;2.37;;;;;;;;;;5073138;28;20201;-35
2022/11/08 12:40:36;;;;;;;3.00;2.20;;;;;;;;;;5082788;28;20323;-30
2022/11/08 12:43:12;;;;;;;2.53;2.07;;;;;;;;;;5082783;28;20201;-32
2022/11/08 12:45:55;;;;;;;2.23;2.03;;;;;;;;;;5078301;28;20197;-32
2022/11/08 12:48:26;;;;;;;1.97;1.73;;;;;;;;;;5081585;28;20200;-34
2022/11/08 12:50:57;;;;;;;1.77;1.67;;;;;;;;;;5076976;28;20248;-34
2022/11/08 12:53:36;;;;;;;1.80;1.70;;;;;;;;;;5080148;28;20265;-31
2022/11/08 12:56:04;;;;;;;3.13;1.83;;;;;;;;;;5088897;28;20285;-30
2022/11/08 12:58:33;;;;;;;2.87;1.57;;;;;;;;;;5087539;28;20210;-35
2022/11/08 13:01:03;;;;;;;4.27;1.70;;;;;;;;;;5097342;27;20227;-32
2022/11/08 13:03:45;;;;;;;2.53;1.77;;;;;;;;;;5109008;27;20224;-31
2022/11/08 13:06:17;;;;;;;4.10;1.50;;;;;;;;;;5101970;27;20192;-29
2022/11/08 13:08:52;;;;;;;2.30;1.60;;;;;;;;;;5116027;27;20199;-30
2022/11/08 13:11:22;;;;;;;2.00;1.50;;;;;;;;;;5116462;27;20219;-34
2022/11/08 13:13:50;;;;;;;1.73;1.63;;;;;;;;;;5111256;27;20204;-31
2022/11/08 13:16:19;;;;;;;3.73;1.57;;;;;;;;;;5099835;28;20224;-35
2022/11/08 13:18:49;;;;;;;2.17;1.90;;;;;;;;;;5097344;28;20211;-33
2022/11/08 13:21:36;;;;;;;2.63;1.63;;;;;;;;;;5094567;28;20248;-34
2022/11/08 13:24:22;;;;;;;3.70;1.70;;;;;;;;;;5102393;27;20208;-31
2022/11/08 13:26:51;;;;;;;2.63;1.80;;;;;;;;;;5092398;28;20223;-34
2022/11/08 13:29:26;;;;;;;2.90;1.90;;;;;;;;;;5083878;28;20288;-34
2022/11/08 13:31:55;;;;;;;2.20;2.00;;;;;;;;;;5102256;28;20246;-31
2022/11/08 13:34:28;;;;;;;1.90;1.73;;;;;;;;;;5092829;28;20211;-33
2022/11/08 13:37:06;;;;;;;2.30;2.00;;;;;;;;;;5105557;28;20211;-31
2022/11/08 13:39:59;;;;;;;4.03;2.00;;;;;;;;;;5103539;28;20192;-28
2022/11/08 13:42:40;;;;;;;5.60;1.80;;;;;;;;;;5093834;28;20196;-34
2022/11/08 13:45:13;;;;;;;3.40;1.80;;;;;;;;;;5107998;28;20191;-30
2022/11/08 13:47:52;;;;;;;4.50;1.80;;;;;;;;;;5119935;28;20294;-30
2022/11/08 13:50:52;;;;;;;3.10;2.47;;;;;;;;;;5105845;28;20225;-32
2022/11/08 13:53:53;;;;;;;1.80;1.70;;;;;;;;;;5025514;28;20195;-31
2022/11/08 13:56:41;;;;;;;1.67;1.57;;;;;;;;;;5026095;28;20205;-30
2022/11/08 13:59:26;;;;;;;2.37;1.80;;;;;;;;;;5095966;28;20227;-31
2022/11/08 14:01:59;;;;;;;2.83;2.10;;;;;;;;;;5097680;28;20218;-30
2022/11/08 14:04:33;;;;;;;2.67;2.27;;;;;;;;;;5104902;28;20251;-32
2022/11/08 14:07:05;;;;;;;2.30;2.10;;;;;;;;;;5105731;28;20564;-36
2022/11/08 14:09:36;;;;;;;4.13;1.90;;;;;;;;;;5102207;28;20197;-33
2022/11/08 14:12:07;;;;;;;4.20;2.00;;;;;;;;;;5089910;28;20279;-35
2022/11/08 14:14:39;;;;;;;2.50;2.00;;;;;;;;;;5097637;28;20212;-32
2022/11/08 14:17:12;;;;;;;4.77;1.77;;;;;;;;;;5094323;28;20228;-32
2022/11/08 14:19:40;;;;;;;2.63;1.87;;;;;;;;;;5090679;28;20200;-33
2022/11/08 14:22:14;;;;;;;1.67;1.57;;;;;;;;;;5095924;28;20201;-33
2022/11/08 14:24:42;;;;;;;2.00;1.80;;;;;;;;;;5096456;27;20327;-32
2022/11/08 14:27:11;;;;;;;2.13;1.90;;;;;;;;;;5092522;28;20200;-35
2022/11/08 14:29:38;;;;;;;2.30;2.00;;;;;;;;;;5103908;27;20201;-33
2022/11/08 14:32:07;;;;;;;2.30;2.10;;;;;;;;;;5099130;27;20211;-31
2022/11/08 14:34:39;;;;;;;2.93;1.97;;;;;;;;;;5099656;28;20312;-35
2022/11/08 14:37:15;;;;;;;2.17;2.00;;;;;;;;;;5100643;28;20254;-30
2022/11/08 14:39:46;;;;;;;3.60;1.70;;;;;;;;;;5098700;28;20201;-32
2022/11/08 14:42:17;;;;;;;2.23;1.57;;;;;;;;;;5097292;28;20339;-32
2022/11/08 14:44:44;;;;;;;2.43;1.93;;;;;;;;;;5103522;27;20296;-34
2022/11/08 14:47:22;;;;;;;1.53;1.33;;;;;;;;;;5102669;28;20196;-33
2022/11/08 14:49:51;;;;;;;1.50;1.40;;;;;;;;;;5099936;27;20232;-36
2022/11/08 14:52:21;;;;;;;2.13;1.53;;;;;;;;;;5105515;28;20204;-31
2022/11/08 14:54:48;;;;;;;2.13;1.93;;;;;;;;;;5098063;28;20393;-35
2022/11/08 14:57:32;;;;;;;2.70;2.07;;;;;;;;;;5103433;28;20216;-32
2022/11/08 15:00:02;;;;;;;2.07;1.77;;;;;;;;;;5100440;28;20231;-30
2022/11/08 15:02:29;;;;;;;5.47;1.87;;;;;;;;;;5106926;27;20204;-33
2022/11/08 15:04:58;;;;;;;2.30;2.10;;;;;;;;;;5111810;27;20209;-32
2022/11/08 15:07:26;;;;;;;2.57;2.03;;;;;;;;;;5118173;27;20200;-34
2022/11/08 15:09:53;;;;;;;2.30;2.00;;;;;;;;;;5120501;27;20296;-30
2022/11/08 15:12:22;;;;;;;3.07;1.87;;;;;;;;;;5112292;28;20210;-31
2022/11/08 15:14:51;;;;;;;2.93;1.60;;;;;;;;;;5112513;27;20211;-32
2022/11/08 15:17:32;;;;;;;2.50;1.77;;;;;;;;;;5112526;28;20280;-29
2022/11/08 15:20:08;;;;;;;4.63;2.20;;;;;;;;;;5109642;27;20227;-30
2022/11/08 15:22:36;;;;;;;2.43;1.97;;;;;;;;;;5108321;28;20282;-35